createdAt,value
2018-06-29T00:00:58.221Z,92.30
2018-06-29T00:03:26.723Z,92.30
2018-06-29T00:05:54.773Z,92.30
2018-06-29T00:08:23.022Z,92.40
2018-06-29T00:10:51.757Z,92.50
2018-06-29T00:13:19.816Z,92.50
2018-06-29T00:15:48.799Z,92.60
2018-06-29T00:18:17.381Z,92.60
2018-06-29T00:20:45.654Z,92.80
2018-06-29T00:23:13.810Z,92.80
2018-06-29T00:25:42.008Z,92.90
2018-06-29T00:28:10.764Z,93.00
2018-06-29T00:30:38.847Z,93.20
2018-06-29T00:33:07.015Z,93.30
2018-06-29T00:35:35.059Z,93.40
2018-06-29T00:38:03.188Z,93.50
2018-06-29T00:40:34.019Z,93.60
2018-06-29T00:43:02.266Z,93.60
2018-06-29T00:45:31.367Z,93.60
2018-06-29T00:47:59.551Z,93.50
2018-06-29T00:50:27.807Z,93.60
2018-06-29T00:52:56.391Z,93.60
2018-06-29T00:55:24.819Z,93.90
2018-06-29T00:57:53.747Z,93.90
2018-06-29T01:00:22.330Z,94.00
2018-06-29T01:02:50.586Z,94.00
2018-06-29T01:05:19.317Z,94.00
2018-06-29T01:07:47.354Z,94.10
2018-06-29T01:10:15.399Z,94.20
2018-06-29T01:12:46.109Z,94.20
2018-06-29T01:15:14.168Z,94.60
2018-06-29T01:17:42.182Z,94.30
2018-06-29T01:20:10.193Z,94.30
2018-06-29T01:22:38.316Z,94.30
2018-06-29T01:25:07.169Z,94.30
2018-06-29T01:27:35.466Z,94.30
2018-06-29T01:30:04.150Z,94.30
2018-06-29T01:32:32.119Z,94.40
2018-06-29T01:35:01.204Z,94.30
2018-06-29T01:37:29.293Z,94.40
2018-06-29T01:42:25.986Z,94.40
2018-06-29T01:44:54.279Z,94.40
2018-06-29T01:47:22.415Z,94.50
2018-06-29T01:54:46.425Z,94.60
2018-06-29T01:57:15.089Z,94.60
2018-06-29T01:59:43.274Z,94.60
2018-06-29T02:02:11.312Z,94.60
2018-06-29T02:04:39.452Z,94.70
2018-06-29T02:07:07.557Z,94.80
2018-06-29T02:09:36.627Z,94.80
2018-06-29T02:12:07.273Z,94.80
2018-06-29T02:14:35.901Z,94.80
2018-06-29T02:17:03.944Z,94.90
2018-06-29T02:19:31.914Z,94.90
2018-06-29T02:22:00.698Z,95.00
2018-06-29T02:24:30.316Z,95.00
2018-06-29T02:26:58.549Z,95.10
2018-06-29T02:29:27.350Z,95.10
2018-06-29T02:31:55.528Z,95.00
2018-06-29T02:34:23.827Z,95.00
2018-06-29T02:36:52.750Z,94.90
2018-06-29T02:41:48.743Z,94.90
2018-06-29T02:44:16.827Z,94.90
2018-06-29T02:46:44.850Z,94.90
2018-06-29T02:49:12.862Z,94.90
2018-06-29T02:51:40.910Z,95.00
2018-06-29T02:54:09.007Z,95.20
2018-06-29T02:56:37.270Z,95.30
2018-06-29T02:59:05.307Z,95.40
2018-06-29T03:01:34.165Z,95.50
2018-06-29T03:04:02.185Z,95.60
2018-06-29T03:06:30.301Z,95.80
2018-06-29T03:08:58.329Z,95.90
2018-06-29T03:11:29.072Z,95.80
2018-06-29T03:13:57.362Z,95.90
2018-06-29T03:16:25.355Z,95.90
2018-06-29T03:21:22.670Z,95.90
2018-06-29T03:23:51.813Z,95.90
2018-06-29T03:31:15.798Z,96.10
2018-06-29T03:33:43.816Z,96.00
2018-06-29T03:36:11.886Z,95.90
2018-06-29T03:38:39.962Z,95.90
2018-06-29T03:41:08.131Z,95.90
2018-06-29T03:43:38.572Z,95.80
2018-06-29T03:46:06.746Z,95.70
2018-06-29T03:48:34.925Z,95.60
2018-06-29T03:51:03.948Z,95.50
2018-06-29T03:53:32.266Z,95.40
2018-06-29T03:58:28.313Z,95.30
2018-06-29T04:00:56.404Z,95.30
2018-06-29T04:03:26.462Z,95.80
2018-06-29T04:05:54.572Z,96.00
2018-06-29T04:10:50.643Z,96.00
2018-06-29T04:13:18.571Z,96.00
2018-06-29T04:18:14.366Z,96.10
2018-06-29T04:20:43.214Z,96.10
2018-06-29T04:23:11.301Z,96.00
2018-06-29T04:25:39.498Z,95.80
2018-06-29T04:28:09.997Z,95.80
2018-06-29T04:30:38.257Z,95.70
2018-06-29T04:33:07.043Z,95.70
2018-06-29T04:35:35.655Z,95.80
2018-06-29T04:38:03.710Z,95.80
2018-06-29T04:40:31.791Z,96.10
2018-06-29T04:43:00.078Z,96.20
2018-06-29T04:45:28.799Z,96.10
2018-06-29T04:47:56.858Z,96.10
2018-06-29T04:50:25.186Z,96.00
2018-06-29T04:52:53.402Z,95.90
2018-06-29T04:55:21.553Z,95.90
2018-06-29T04:57:50.402Z,96.00
2018-06-29T05:00:18.833Z,96.10
2018-06-29T05:02:47.889Z,96.30
2018-06-29T05:05:17.706Z,96.30
2018-06-29T05:07:46.084Z,96.40
2018-06-29T05:10:14.157Z,96.20
2018-06-29T05:12:43.031Z,96.40
2018-06-29T05:15:11.437Z,96.60
2018-06-29T05:17:39.531Z,96.70
2018-06-29T05:20:07.874Z,97.40
2018-06-29T05:22:35.891Z,97.60
2018-06-29T05:25:04.567Z,97.80
2018-06-29T05:27:33.499Z,97.60
2018-06-29T05:30:01.556Z,97.50
2018-06-29T05:32:30.375Z,97.10
2018-06-29T05:34:58.755Z,97.10
2018-06-29T05:37:27.262Z,97.00
2018-06-29T05:39:55.368Z,95.80
2018-06-29T05:42:23.605Z,95.50
2018-06-29T05:44:51.614Z,95.20
2018-06-29T05:47:19.853Z,95.00
2018-06-29T05:49:48.820Z,95.00
2018-06-29T05:52:17.928Z,94.90
2018-06-29T05:54:46.856Z,94.80
2018-06-29T05:57:15.371Z,94.50
2018-06-29T05:59:43.484Z,94.60
2018-06-29T06:04:40.096Z,94.50
2018-06-29T06:07:09.395Z,94.30
2018-06-29T06:09:39.498Z,94.10
2018-06-29T06:12:09.500Z,94.40
2018-06-29T06:14:40.723Z,94.30
2018-06-29T06:17:08.902Z,94.10
2018-06-29T06:19:48.226Z,94.10
2018-06-29T06:22:18.473Z,94.10
2018-06-29T06:24:47.463Z,94.00
2018-06-29T06:27:17.838Z,93.80
2018-06-29T06:29:46.009Z,93.80
2018-06-29T06:32:14.130Z,93.80
2018-06-29T06:34:42.644Z,93.70
2018-06-29T06:37:15.213Z,93.60
2018-06-29T06:39:43.437Z,93.20
2018-06-29T06:42:11.994Z,93.20
2018-06-29T06:44:40.019Z,93.10
2018-06-29T06:47:09.186Z,92.70
2018-06-29T06:49:37.753Z,92.30
2018-06-29T06:52:05.878Z,89.70
2018-06-29T06:54:38.121Z,84.50
2018-06-29T06:57:07.656Z,82.20
2018-06-29T06:59:39.865Z,79.50
2018-06-29T07:02:08.398Z,79.20
2018-06-29T07:04:39.825Z,77.30
2018-06-29T07:07:10.646Z,77.20
2018-06-29T07:09:40.274Z,77.30
2018-06-29T07:15:08.344Z,76.20
2018-06-29T07:17:46.438Z,77.60
2018-06-29T07:20:14.476Z,73.20
2018-06-29T07:22:43.520Z,73.80
2018-06-29T07:25:12.625Z,73.30
2018-06-29T07:27:41.656Z,71.00
2018-06-29T07:30:14.825Z,71.90
2018-06-29T07:32:43.918Z,71.50
2018-06-29T07:35:12.634Z,71.30
2018-06-29T07:37:48.139Z,68.30
2018-06-29T07:40:17.593Z,67.10
2018-06-29T07:42:49.204Z,68.40
2018-06-29T07:45:17.204Z,67.10
2018-06-29T07:47:46.884Z,68.60
2018-06-29T07:50:15.106Z,65.90
2018-06-29T07:52:43.519Z,64.20
2018-06-29T07:55:13.604Z,66.50
2018-06-29T07:57:44.360Z,69.30
2018-06-29T08:00:15.574Z,70.50
2018-06-29T08:02:47.967Z,71.90
2018-06-29T08:05:15.982Z,72.60
2018-06-29T08:07:44.133Z,73.60
2018-06-29T08:10:12.435Z,73.40
2018-06-29T08:15:09.150Z,75.20
2018-06-29T08:17:38.170Z,76.50
2018-06-29T08:20:06.329Z,76.70
2018-06-29T08:22:35.115Z,76.80
2018-06-29T08:25:10.949Z,76.70
2018-06-29T08:27:39.534Z,76.60
2018-06-29T08:30:11.390Z,76.30
2018-06-29T08:32:40.527Z,76.40
2018-06-29T08:35:09.619Z,75.60
2018-06-29T08:37:38.302Z,75.20
2018-06-29T08:40:08.237Z,74.30
2018-06-29T08:42:36.547Z,74.20
2018-06-29T08:45:09.628Z,73.00
2018-06-29T08:47:39.293Z,70.80
2018-06-29T08:50:07.371Z,70.20
2018-06-29T08:52:36.326Z,69.30
2018-06-29T08:55:05.878Z,69.40
2018-06-29T08:57:33.914Z,70.60
2018-06-29T09:00:02.365Z,70.90
2018-06-29T09:02:30.944Z,71.40
2018-06-29T09:05:01.082Z,72.00
2018-06-29T09:07:29.152Z,72.60
2018-06-29T09:09:57.337Z,70.30
2018-06-29T09:12:27.697Z,66.80
2018-06-29T09:14:56.689Z,66.10
2018-06-29T09:17:26.957Z,65.70
2018-06-29T09:20:00.699Z,63.10
2018-06-29T09:22:30.780Z,64.30
2018-06-29T09:24:58.774Z,65.00
2018-06-29T09:27:29.936Z,64.50
2018-06-29T09:29:58.680Z,62.30
2018-06-29T09:32:27.265Z,61.30
2018-06-29T09:34:55.321Z,64.10
2018-06-29T09:37:23.435Z,61.90
2018-06-29T09:39:51.518Z,62.90
2018-06-29T09:44:56.806Z,64.70
2018-06-29T09:47:25.012Z,64.60
2018-06-29T09:52:29.922Z,62.90
2018-06-29T09:55:01.861Z,64.30
2018-06-29T09:57:30.034Z,62.40
2018-06-29T09:59:58.098Z,64.60
2018-06-29T10:02:31.689Z,65.70
2018-06-29T10:04:54.753Z,65.90
2018-06-29T10:07:23.758Z,66.90
2018-06-29T10:09:51.772Z,68.60
2018-06-29T10:12:22.833Z,70.10
2018-06-29T10:14:50.992Z,69.30
2018-06-29T10:17:19.898Z,69.20
2018-06-29T10:22:24.220Z,68.70
2018-06-29T10:24:52.833Z,69.00
2018-06-29T10:27:22.114Z,67.20
2018-06-29T10:29:50.592Z,66.40
2018-06-29T10:32:20.355Z,67.10
2018-06-29T10:34:48.465Z,67.30
2018-06-29T10:37:20.047Z,67.20
2018-06-29T10:39:51.313Z,66.90
2018-06-29T10:42:22.150Z,66.80
2018-06-29T10:44:50.470Z,67.20
2018-06-29T10:47:18.702Z,68.00
2018-06-29T10:49:46.653Z,68.70
2018-06-29T10:52:14.847Z,69.20
2018-06-29T10:54:43.100Z,68.40
2018-06-29T10:57:11.642Z,67.70
2018-06-29T10:59:40.706Z,67.70
2018-06-29T11:02:09.692Z,67.10
2018-06-29T11:04:39.689Z,67.90
2018-06-29T11:07:07.990Z,67.10
2018-06-29T11:09:36.247Z,66.80
2018-06-29T11:12:05.044Z,67.10
2018-06-29T11:14:33.920Z,67.20
2018-06-29T11:17:01.998Z,66.70
2018-06-29T11:19:31.784Z,66.20
2018-06-29T11:22:00.024Z,66.10
2018-06-29T11:24:29.197Z,66.60
2018-06-29T11:26:58.720Z,65.90
2018-06-29T11:29:27.449Z,66.20
2018-06-29T11:31:59.313Z,65.80
2018-06-29T11:34:27.633Z,65.40
2018-06-29T11:36:56.698Z,65.50
2018-06-29T11:39:26.568Z,65.00
2018-06-29T11:41:54.814Z,64.60
2018-06-29T11:44:25.644Z,63.70
2018-06-29T11:46:53.723Z,63.00
2018-06-29T11:49:22.078Z,62.60
2018-06-29T11:51:51.352Z,62.50
2018-06-29T11:54:19.391Z,62.70
2018-06-29T11:56:48.007Z,61.70
2018-06-29T11:59:16.419Z,62.20
2018-06-29T12:01:44.559Z,63.70
2018-06-29T12:04:12.557Z,63.90
2018-06-29T12:06:40.666Z,63.10
2018-06-29T12:09:10.274Z,61.80
2018-06-29T12:11:38.326Z,62.30
2018-06-29T12:14:06.520Z,61.60
2018-06-29T12:16:34.955Z,61.90
2018-06-29T12:19:03.166Z,61.50
2018-06-29T12:21:32.331Z,61.20
2018-06-29T12:24:02.642Z,61.10
2018-06-29T12:26:33.453Z,60.70
2018-06-29T12:29:04.195Z,61.10
2018-06-29T12:31:34.157Z,61.40
2018-06-29T12:34:02.176Z,60.30
2018-06-29T12:36:30.765Z,60.10
2018-06-29T12:39:00.728Z,61.10
2018-06-29T12:41:29.346Z,61.40
2018-06-29T12:43:57.514Z,61.30
2018-06-29T12:46:27.108Z,61.70
2018-06-29T12:48:55.838Z,61.20
2018-06-29T12:51:27.776Z,60.10
2018-06-29T12:53:56.014Z,59.50
2018-06-29T12:56:24.009Z,60.20
2018-06-29T12:58:52.531Z,60.80
2018-06-29T13:01:23.057Z,60.50
2018-06-29T13:06:18.969Z,60.10
2018-06-29T13:08:48.431Z,59.90
2018-06-29T13:11:16.452Z,60.20
2018-06-29T13:13:44.965Z,59.50
2018-06-29T13:16:13.394Z,60.00
2018-06-29T13:18:41.870Z,59.40
2018-06-29T13:21:10.829Z,59.70
2018-06-29T13:23:39.106Z,59.30
2018-06-29T13:26:07.381Z,58.90
2018-06-29T13:28:35.660Z,58.50
2018-06-29T13:31:04.954Z,59.40
2018-06-29T13:33:33.149Z,59.40
2018-06-29T13:36:01.866Z,59.40
2018-06-29T13:38:30.798Z,59.00
2018-06-29T13:40:58.782Z,59.00
2018-06-29T13:43:26.852Z,58.70
2018-06-29T13:45:55.213Z,59.10
2018-06-29T13:48:26.322Z,59.20
2018-06-29T13:50:56.074Z,59.40
2018-06-29T13:53:25.238Z,58.70
2018-06-29T13:55:54.169Z,58.90
2018-06-29T13:58:22.879Z,58.10
2018-06-29T14:00:51.389Z,59.10
2018-06-29T14:03:19.714Z,58.90
2018-06-29T14:05:48.570Z,58.70
2018-06-29T14:08:17.834Z,59.10
2018-06-29T14:10:48.928Z,59.50
2018-06-29T14:13:17.371Z,58.60
2018-06-29T14:15:46.442Z,58.40
2018-06-29T14:18:14.592Z,59.30
2018-06-29T14:20:44.879Z,58.80
2018-06-29T14:23:13.031Z,58.60
2018-06-29T14:25:41.456Z,58.70
2018-06-29T14:28:09.692Z,58.50
2018-06-29T14:30:37.782Z,58.90
2018-06-29T14:33:08.056Z,59.00
2018-06-29T14:35:36.339Z,58.30
2018-06-29T14:38:04.785Z,58.80
2018-06-29T14:40:32.807Z,58.50
2018-06-29T14:43:02.818Z,58.40
2018-06-29T14:45:30.975Z,58.20
2018-06-29T14:48:00.479Z,58.10
2018-06-29T14:50:28.542Z,57.90
2018-06-29T14:52:56.730Z,57.80
2018-06-29T14:55:24.985Z,57.90
2018-06-29T14:57:53.057Z,57.60
2018-06-29T15:00:21.611Z,58.40
2018-06-29T15:02:49.767Z,58.30
2018-06-29T15:05:18.128Z,58.00
2018-06-29T15:07:48.563Z,58.60
2018-06-29T15:10:21.108Z,58.70
2018-06-29T15:12:50.390Z,58.50
2018-06-29T15:15:19.925Z,58.60
2018-06-29T15:17:50.271Z,58.50
2018-06-29T15:20:19.817Z,58.20
2018-06-29T15:22:48.782Z,58.40
2018-06-29T15:25:20.781Z,58.30
2018-06-29T15:27:49.576Z,57.70
2018-06-29T15:30:17.809Z,57.20
2018-06-29T15:32:46.069Z,57.80
2018-06-29T15:35:14.582Z,57.50
2018-06-29T15:37:42.812Z,57.60
2018-06-29T15:40:12.110Z,57.20
2018-06-29T15:42:42.600Z,56.90
2018-06-29T15:45:16.637Z,56.70
2018-06-29T15:47:46.511Z,56.50
2018-06-29T15:50:16.854Z,56.80
2018-06-29T15:52:45.927Z,57.00
2018-06-29T15:55:14.548Z,57.10
2018-06-29T15:57:42.617Z,57.20
2018-06-29T16:00:11.781Z,57.40
2018-06-29T16:02:40.023Z,57.10
2018-06-29T16:05:09.959Z,56.90
2018-06-29T16:07:39.077Z,56.50
2018-06-29T16:10:08.345Z,56.80
2018-06-29T16:12:36.481Z,56.90
2018-06-29T16:15:09.605Z,56.60
2018-06-29T16:17:38.610Z,56.70
2018-06-29T16:20:09.789Z,57.00
2018-06-29T16:22:41.092Z,57.00
2018-06-29T16:25:09.494Z,57.30
2018-06-29T16:27:38.729Z,57.10
2018-06-29T16:30:07.617Z,56.60
2018-06-29T16:32:35.813Z,56.90
2018-06-29T16:35:04.014Z,56.80
2018-06-29T16:37:33.540Z,56.90
2018-06-29T16:40:03.691Z,57.00
2018-06-29T16:42:33.569Z,57.60
2018-06-29T16:45:02.871Z,56.80
2018-06-29T16:47:32.043Z,56.90
2018-06-29T16:50:00.254Z,56.90
2018-06-29T16:52:28.871Z,56.70
2018-06-29T16:54:57.844Z,56.30
2018-06-29T16:57:25.974Z,56.60
2018-06-29T16:59:58.738Z,56.80
2018-06-29T17:02:27.563Z,57.20
2018-06-29T17:04:57.226Z,57.20
2018-06-29T17:07:28.327Z,57.10
2018-06-29T17:09:58.185Z,56.90
2018-06-29T17:12:28.181Z,57.00
2018-06-29T17:14:58.133Z,56.80
2018-06-29T17:17:28.491Z,57.30
2018-06-29T17:19:57.099Z,57.40
2018-06-29T17:22:26.615Z,57.00
2018-06-29T17:24:56.808Z,56.80
2018-06-29T17:27:33.322Z,56.40
2018-06-29T17:30:02.232Z,56.30
2018-06-29T17:32:31.521Z,56.10
2018-06-29T17:34:59.763Z,55.70
2018-06-29T17:37:28.796Z,55.40
2018-06-29T17:39:57.025Z,54.60
2018-06-29T17:42:26.889Z,54.30
2018-06-29T17:44:55.206Z,53.40
2018-06-29T17:47:23.593Z,52.80
2018-06-29T17:50:00.591Z,52.90
2018-06-29T17:52:30.707Z,52.80
2018-06-29T17:55:03.823Z,53.10
2018-06-29T17:57:35.274Z,53.10
2018-06-29T18:00:05.729Z,53.50
2018-06-29T18:02:35.023Z,53.90
2018-06-29T18:05:03.391Z,54.40
2018-06-29T18:07:32.106Z,54.50
2018-06-29T18:10:01.936Z,54.20
2018-06-29T18:15:00.172Z,54.40
2018-06-29T18:17:29.596Z,54.80
2018-06-29T18:20:00.328Z,55.10
2018-06-29T18:22:33.246Z,54.20
2018-06-29T18:25:07.543Z,54.00
2018-06-29T18:27:37.523Z,53.20
2018-06-29T18:30:07.687Z,53.30
2018-06-29T18:32:36.838Z,53.30
2018-06-29T18:35:06.301Z,53.70
2018-06-29T18:40:11.051Z,53.90
2018-06-29T18:42:40.521Z,54.00
2018-06-29T18:45:08.822Z,54.30
2018-06-29T18:47:45.743Z,54.50
2018-06-29T18:50:16.798Z,54.90
2018-06-29T18:52:45.650Z,55.40
2018-06-29T18:57:43.127Z,55.90
2018-06-29T19:00:12.776Z,55.90
2018-06-29T19:02:42.698Z,56.30
2018-06-29T19:05:12.367Z,56.70
2018-06-29T19:07:48.299Z,57.10
2018-06-29T19:10:19.103Z,57.00
2018-06-29T19:12:48.722Z,57.30
2018-06-29T19:15:19.609Z,57.30
2018-06-29T19:18:00.110Z,57.50
2018-06-29T19:20:28.449Z,57.70
2018-06-29T19:23:07.960Z,58.00
2018-06-29T19:25:38.862Z,58.30
2018-06-29T19:30:38.767Z,59.00
2018-06-29T19:33:07.639Z,59.40
2018-06-29T19:35:36.144Z,59.80
2018-06-29T19:38:05.362Z,60.20
2018-06-29T19:40:43.662Z,60.60
2018-06-29T19:43:18.098Z,60.70
2018-06-29T19:45:46.509Z,61.00
2018-06-29T19:48:18.770Z,61.10
2018-06-29T19:53:17.368Z,61.60
2018-06-29T19:58:20.412Z,62.00
2018-06-29T20:00:50.731Z,62.10
2018-06-29T20:03:19.410Z,62.40
2018-06-29T20:05:47.927Z,62.40
2018-06-29T20:08:26.855Z,62.70
2018-06-29T20:10:57.152Z,63.10
2018-06-29T20:13:29.918Z,63.20
2018-06-29T20:15:58.742Z,63.30
2018-06-29T20:18:29.667Z,63.60
2018-06-29T20:20:59.249Z,63.60
2018-06-29T20:23:34.696Z,63.90
2018-06-29T20:26:04.892Z,64.20
2018-06-29T20:28:34.796Z,64.40
2018-06-29T20:33:45.834Z,65.00
2018-06-29T20:36:26.901Z,65.30
2018-06-29T20:38:57.372Z,65.50
2018-06-29T20:41:26.993Z,65.80
2018-06-29T20:43:55.965Z,66.20
2018-06-29T20:46:30.305Z,66.40
2018-06-29T20:49:01.610Z,66.70
2018-06-29T20:51:30.024Z,67.00
2018-06-29T20:54:00.298Z,67.30
2018-06-29T20:59:02.557Z,68.30
2018-06-29T21:01:30.970Z,68.90
2018-06-29T21:04:00.387Z,69.30
2018-06-29T21:06:30.366Z,69.60
2018-06-29T21:08:59.504Z,70.10
2018-06-29T21:11:29.794Z,70.30
2018-06-29T21:13:58.255Z,70.60
2018-06-29T21:16:26.786Z,71.00
2018-06-29T21:18:56.691Z,70.60
2018-06-29T21:21:25.275Z,70.30
2018-06-29T21:23:55.101Z,71.00
2018-06-29T21:26:23.335Z,71.30
2018-06-29T21:28:53.154Z,71.80
2018-06-29T21:31:23.771Z,71.90
2018-06-29T21:33:52.636Z,72.40
2018-06-29T21:36:22.461Z,72.50
2018-06-29T21:38:52.705Z,73.00
2018-06-29T21:41:22.154Z,73.40
2018-06-29T21:43:58.035Z,73.50
2018-06-29T21:46:28.716Z,73.70
2018-06-29T21:48:58.251Z,74.00
2018-06-29T21:51:27.106Z,73.90
2018-06-29T21:53:55.788Z,74.10
2018-06-29T21:56:26.576Z,74.80
2018-06-29T21:58:56.763Z,75.30
2018-06-29T22:01:24.896Z,75.70
2018-06-29T22:03:56.293Z,75.80
2018-06-29T22:06:24.734Z,76.30
2018-06-29T22:08:55.333Z,76.70
2018-06-29T22:11:25.084Z,77.20
2018-06-29T22:13:54.401Z,77.70
2018-06-29T22:16:29.527Z,78.00
2018-06-29T22:18:58.285Z,78.10
2018-06-29T22:21:30.068Z,78.20
2018-06-29T22:24:03.871Z,78.70
2018-06-29T22:26:33.890Z,78.70
2018-06-29T22:29:05.369Z,79.30
2018-06-29T22:31:34.682Z,80.20
2018-06-29T22:34:03.607Z,80.60
2018-06-29T22:36:35.609Z,80.60
2018-06-29T22:39:07.579Z,80.80
2018-06-29T22:41:43.878Z,81.10
2018-06-29T22:44:12.297Z,81.30
2018-06-29T22:46:42.244Z,82.80
2018-06-29T22:51:40.101Z,88.00
2018-06-29T22:54:09.859Z,90.00
2018-06-29T22:56:37.923Z,90.30
2018-06-29T22:59:08.438Z,90.50
2018-06-29T23:01:36.755Z,90.90
2018-06-29T23:04:05.033Z,91.10
2018-06-29T23:06:33.335Z,91.50
2018-06-29T23:09:04.477Z,91.40
2018-06-29T23:11:34.222Z,91.40
2018-06-29T23:14:04.174Z,91.40
2018-06-29T23:16:32.679Z,91.60
2018-06-29T23:19:00.868Z,91.60
2018-06-29T23:21:32.167Z,92.00
2018-06-29T23:24:00.328Z,92.20
2018-06-29T23:26:29.591Z,92.40
2018-06-29T23:28:58.954Z,92.50
2018-06-29T23:31:28.247Z,92.50
2018-06-29T23:36:32.328Z,92.60
2018-06-29T23:39:00.453Z,92.90
2018-06-29T23:41:29.360Z,93.60
2018-06-29T23:43:57.436Z,93.70
2018-06-29T23:46:26.829Z,93.60
2018-06-29T23:48:56.811Z,94.00
2018-06-29T23:51:25.317Z,94.00
2018-06-29T23:53:53.897Z,94.30
2018-06-29T23:56:22.066Z,94.30
2018-06-29T23:58:51.618Z,94.60
